Time;durP1;ratioP1;P1;durP2;ratioP2;P2;SDS_P1;SDS_P2;PMS_P1;PMS_P2;Temp;Humidity;BMP_temperature;BMP_pressure;BME280_temperature;BME280_humidity;BME280_pressure;Samples;Min_cycle;Max_cycle;Signal;HPM_P1;HPM_P2
2023/06/29 20:39:19;;;;;;;25.02;18.27;;;;;;;22.32;56.52;99558.34;5160326;23;20823;-83
2023/06/29 20:42:00;;;;;;;27.63;20.80;;;;;;;22.24;58.21;99551.16;4895741;29;20100;-86
2023/06/29 20:44:40;;;;;;;31.02;21.33;;;;;;;22.24;57.84;99556.50;4891515;29;20152;-84
2023/06/29 20:47:07;;;;;;;29.38;21.55;;;;;;;22.20;57.50;99557.84;4898174;29;20112;-84
2023/06/29 20:49:33;;;;;;;29.27;20.00;;;;;;;22.16;58.09;99556.53;4915053;29;20060;-84
2023/06/29 20:52:00;;;;;;;28.23;20.17;;;;;;;22.13;58.42;99551.53;4914620;29;20056;-84
2023/06/29 20:54:27;;;;;;;25.90;19.77;;;;;;;22.12;58.67;99560.53;4898149;29;20063;-83
2023/06/29 20:56:53;;;;;;;25.83;19.92;;;;;;;22.10;59.06;99559.88;4897621;29;20054;-83
2023/06/29 20:59:20;;;;;;;25.17;19.27;;;;;;;22.08;59.36;99554.69;4914823;29;20060;-83
2023/06/29 21:01:46;;;;;;;25.60;19.38;;;;;;;22.08;59.28;99559.19;4915054;29;20068;-84
2023/06/29 21:04:20;;;;;;;28.35;20.35;;;;;;;22.04;60.78;99561.38;4916110;29;20064;-84
2023/06/29 21:06:47;;;;;;;24.90;19.52;;;;;;;22.05;60.07;99560.38;4915013;29;20079;-84
2023/06/29 21:09:14;;;;;;;21.00;16.77;;;;;;;22.06;60.07;99572.78;4898405;29;20579;-84
2023/06/29 21:11:41;;;;;;;21.45;15.73;;;;;;;22.03;60.00;99570.44;4898644;29;20091;-83
2023/06/29 21:14:08;;;;;;;25.10;13.52;;;;;;;22.02;59.86;99565.25;4915584;29;20063;-83
2023/06/29 21:16:34;;;;;;;14.98;12.02;;;;;;;22.00;59.73;99560.03;4915271;29;20115;-83
2023/06/29 21:19:01;;;;;;;13.60;11.00;;;;;;;21.97;59.87;99563.06;4898982;29;20064;-84
2023/06/29 21:21:28;;;;;;;13.80;10.65;;;;;;;21.95;59.83;99570.44;4915977;29;20063;-83
2023/06/29 21:23:55;;;;;;;12.30;9.88;;;;;;;21.93;59.96;99569.75;4898549;29;20092;-83
2023/06/29 21:26:23;;;;;;;13.05;9.48;;;;;;;21.89;59.92;99560.38;4915779;29;20056;-83
2023/06/29 21:28:53;;;;;;;9.25;7.78;;;;;;;21.84;60.42;99558.19;4898462;29;20107;-83
2023/06/29 21:31:23;;;;;;;9.48;7.85;;;;;;;21.80;60.32;99562.22;4899048;29;20064;-83
2023/06/29 21:33:49;;;;;;;14.80;8.05;;;;;;;21.77;60.30;99571.44;4915390;29;20055;-83
2023/06/29 21:36:16;;;;;;;8.68;5.95;;;;;;;21.73;60.04;99565.56;4915238;29;20119;-84
2023/06/29 21:38:43;;;;;;;6.13;4.65;;;;;;;21.70;60.07;99575.72;4915306;29;20143;-83
2023/06/29 21:41:16;;;;;;;5.03;4.32;;;;;;;21.67;60.13;99576.91;4899536;29;20159;-83
2023/06/29 21:43:42;;;;;;;5.15;3.40;;;;;;;21.65;59.61;99578.06;4915012;29;20486;-83
2023/06/29 21:46:09;;;;;;;6.70;3.60;;;;;;;21.61;59.75;99580.25;4898311;29;20107;-83
2023/06/29 21:48:38;;;;;;;4.43;2.90;;;;;;;21.57;59.55;99578.91;4898047;29;20083;-83
2023/06/29 21:51:05;;;;;;;5.93;3.05;;;;;;;21.52;59.80;99579.38;4915309;29;20515;-83
2023/06/29 21:53:31;;;;;;;3.83;3.17;;;;;;;21.48;60.06;99586.06;4915335;29;20134;-83
2023/06/29 21:55:58;;;;;;;4.05;3.00;;;;;;;21.44;59.89;99587.38;4914925;29;20067;-83
2023/06/29 21:58:44;;;;;;;5.97;2.90;;;;;;;21.39;59.97;99582.53;4900871;29;20056;-83
2023/06/29 22:01:11;;;;;;;4.18;3.00;;;;;;;21.35;59.92;99578.50;4915097;29;20103;-82
2023/06/29 22:03:37;;;;;;;4.80;2.88;;;;;;;21.32;59.99;99578.81;4914836;29;20070;-83
2023/06/29 22:06:04;;;;;;;3.50;2.60;;;;;;;21.30;60.04;99583.50;4898124;29;20139;-83
2023/06/29 22:08:31;;;;;;;2.75;2.47;;;;;;;21.26;59.92;99580.28;4914560;29;20060;-83
2023/06/29 22:10:57;;;;;;;4.72;2.90;;;;;;;21.24;60.27;99581.47;4898121;29;20048;-83
2023/06/29 22:13:27;;;;;;;5.47;3.10;;;;;;;21.20;60.33;99587.13;4898181;29;20059;-83
2023/06/29 22:15:55;;;;;;;3.55;2.67;;;;;;;21.18;60.29;99588.28;4897790;29;20501;-83
2023/06/29 22:18:25;;;;;;;3.85;2.72;;;;;;;21.18;60.49;99593.66;4897563;29;20086;-83
2023/06/29 22:20:53;;;;;;;3.45;2.60;;;;;;;21.16;60.48;99593.81;4897949;29;20095;-84
2023/06/29 22:23:20;;;;;;;4.43;2.38;;;;;;;21.15;60.58;99594.00;4914885;29;20091;-83
2023/06/29 22:25:47;;;;;;;2.53;1.98;;;;;;;21.14;60.45;99585.13;4914668;29;20056;-83
2023/06/29 22:28:14;;;;;;;3.80;2.13;;;;;;;21.12;60.42;99583.59;4897639;29;20382;-84
2023/06/29 22:30:40;;;;;;;3.35;2.38;;;;;;;21.10;60.51;99586.44;4914384;29;20590;-84
2023/06/29 22:33:07;;;;;;;2.90;2.28;;;;;;;21.08;60.40;99577.72;4897766;29;20068;-83
2023/06/29 22:35:33;;;;;;;3.08;2.78;;;;;;;21.05;60.39;99575.38;4914296;29;20064;-83
2023/06/29 22:38:00;;;;;;;3.85;2.90;;;;;;;21.03;60.36;99569.34;4914691;29;20475;-83
2023/06/29 22:40:27;;;;;;;2.95;2.38;;;;;;;21.01;60.29;99566.00;4914235;29;20147;-83
2023/06/29 22:42:53;;;;;;;2.72;2.30;;;;;;;20.99;60.06;99567.97;4913746;29;20139;-83
2023/06/29 22:45:22;;;;;;;3.28;2.20;;;;;;;20.95;60.14;99565.63;4913482;29;20135;-83
2023/06/29 22:47:49;;;;;;;2.15;1.60;;;;;;;20.92;60.14;99568.63;4897500;29;20507;-83
2023/06/29 22:50:15;;;;;;;3.25;1.80;;;;;;;20.89;60.23;99571.63;4913981;29;20409;-84
2023/06/29 22:52:43;;;;;;;4.60;1.73;;;;;;;20.86;60.14;99574.56;4914337;29;20143;-83
2023/06/29 22:55:10;;;;;;;4.78;1.77;;;;;;;20.84;60.23;99571.22;4897260;29;20066;-83
2023/06/29 22:57:36;;;;;;;1.50;1.40;;;;;;;20.82;60.23;99574.06;4914249;29;20095;-82
2023/06/29 23:00:06;;;;;;;1.52;1.42;;;;;;;20.81;60.17;99576.88;4914185;29;20060;-83
2023/06/29 23:02:33;;;;;;;2.53;1.40;;;;;;;20.79;60.51;99578.91;4913681;29;20060;-83
2023/06/29 23:04:59;;;;;;;2.92;1.90;;;;;;;20.77;60.53;99568.34;4897127;29;20059;-83
2023/06/29 23:07:26;;;;;;;2.50;2.00;;;;;;;20.78;60.24;99579.91;4914195;29;20143;-82
2023/06/29 23:09:53;;;;;;;2.50;2.30;;;;;;;20.77;60.62;99584.41;4897546;29;20063;-83
2023/06/29 23:12:20;;;;;;;4.35;2.78;;;;;;;20.76;60.82;99580.06;4913936;29;20074;-83
2023/06/29 23:14:51;;;;;;;4.18;3.10;;;;;;;20.77;60.73;99588.91;4914035;29;20099;-83
2023/06/29 23:17:25;;;;;;;3.85;3.45;;;;;;;20.77;60.79;99588.91;4896953;29;20175;-84
2023/06/29 23:19:52;;;;;;;4.20;3.03;;;;;;;20.77;60.67;99586.22;4897362;29;20099;-84
2023/06/29 23:22:20;;;;;;;3.83;2.88;;;;;;;20.75;60.43;99589.06;4897086;29;20060;-83
2023/06/29 23:24:48;;;;;;;2.50;2.30;;;;;;;20.75;60.40;99588.22;4896856;29;20515;-83
2023/06/29 23:27:16;;;;;;;2.40;2.20;;;;;;;20.73;60.58;99596.41;4896995;29;20056;-83
2023/06/29 23:29:43;;;;;;;2.50;2.30;;;;;;;20.72;60.40;99588.53;4897053;29;20127;-83
2023/06/29 23:32:10;;;;;;;3.55;2.70;;;;;;;20.69;60.35;99590.56;4900081;29;20100;-83
2023/06/29 23:34:39;;;;;;;6.22;2.78;;;;;;;20.67;60.37;99595.19;4917797;29;20060;-83
2023/06/29 23:37:09;;;;;;;3.78;2.67;;;;;;;20.63;60.44;99593.84;4900494;29;20511;-83
2023/06/29 23:39:36;;;;;;;3.50;3.00;;;;;;;20.60;60.50;99588.81;4917343;29;20059;-83
2023/06/29 23:42:06;;;;;;;3.97;3.42;;;;;;;20.56;60.86;99598.16;4917498;29;20068;-84
2023/06/29 23:44:38;;;;;;;3.08;2.88;;;;;;;20.55;60.43;99585.75;4917409;29;20056;-82
2023/06/29 23:47:05;;;;;;;3.92;3.63;;;;;;;20.53;60.63;99583.25;4900611;29;20064;-83
2023/06/29 23:49:35;;;;;;;4.63;4.22;;;;;;;20.51;60.54;99587.91;4900577;29;20095;-83
2023/06/29 23:52:02;;;;;;;5.35;4.05;;;;;;;20.49;60.81;99587.25;4917497;29;20106;-83
2023/06/29 23:54:29;;;;;;;5.20;4.65;;;;;;;20.48;60.73;99587.41;4899930;29;20087;-83
2023/06/29 23:56:58;;;;;;;8.70;4.22;;;;;;;20.47;60.68;99588.38;4916869;29;20134;-83
2023/06/29 23:59:24;;;;;;;4.90;4.38;;;;;;;20.44;60.83;99592.19;4900549;29;20067;-83
